Time;durP1;ratioP1;P1;durP2;ratioP2;P2;SDS_P1;SDS_P2;PMS_P1;PMS_P2;Temp;Humidity;BMP_temperature;BMP_pressure;BME280_temperature;BME280_humidity;BME280_pressure;Samples;Min_cycle;Max_cycle;Signal;HPM_P1;HPM_P2
2022/10/06 00:00:41;;;;;;;11.77;2.08;;;;;;;11.64;100.00;101916.53;1970883;28;20094;-79
2022/10/06 00:01:38;;;;;;;10.50;2.40;;;;;;;11.67;100.00;101923.44;1962095;28;20122;-64
2022/10/06 00:02:36;;;;;;;6.57;2.63;;;;;;;11.63;100.00;101925.25;1962148;28;20112;-64
2022/10/06 00:03:33;;;;;;;8.35;2.47;;;;;;;11.57;100.00;101923.69;1969358;28;20137;-65
2022/10/06 00:04:30;;;;;;;7.72;1.88;;;;;;;11.56;100.00;101923.72;1970292;28;20038;-64
2022/10/06 00:05:29;;;;;;;7.70;1.80;;;;;;;11.61;100.00;101920.97;1970490;28;20038;-65
2022/10/06 00:06:26;;;;;;;9.25;2.20;;;;;;;11.62;100.00;101934.00;1970358;28;20044;-64
2022/10/06 00:07:23;;;;;;;5.10;2.00;;;;;;;11.63;100.00;101932.28;1970383;28;20504;-65
2022/10/06 00:08:21;;;;;;;10.85;2.22;;;;;;;11.62;100.00;101933.16;1970370;28;20038;-65
2022/10/06 00:09:18;;;;;;;8.77;2.53;;;;;;;11.68;100.00;101933.84;1970269;28;20052;-67
2022/10/06 00:10:16;;;;;;;8.25;2.30;;;;;;;11.73;100.00;101931.06;1962008;28;20133;-65
2022/10/06 00:11:16;;;;;;;10.48;2.35;;;;;;;11.72;100.00;101938.09;1962108;28;20042;-68
2022/10/06 00:12:13;;;;;;;8.45;2.15;;;;;;;11.67;100.00;101936.50;1969723;28;20560;-64
2022/10/06 00:13:10;;;;;;;9.70;2.25;;;;;;;11.67;100.00;101941.72;1970311;28;20082;-66
2022/10/06 00:14:08;;;;;;;9.45;2.50;;;;;;;11.66;100.00;101945.22;1970165;28;20418;-66
2022/10/06 00:15:07;;;;;;;10.00;2.63;;;;;;;11.66;100.00;101950.47;1970407;28;20038;-79
2022/10/06 00:16:16;;;;;;;9.88;2.40;;;;;;;11.66;100.00;101955.69;1970357;28;20030;-80
2022/10/06 00:17:13;;;;;;;10.27;2.50;;;;;;;11.64;100.00;101952.28;1970578;28;20049;-82
2022/10/06 00:18:11;;;;;;;15.57;2.92;;;;;;;11.63;100.00;101950.56;1968289;28;20034;-64
2022/10/06 00:19:08;;;;;;;14.48;2.80;;;;;;;11.63;100.00;101958.41;1970265;28;20482;-67
2022/10/06 00:20:08;;;;;;;12.15;2.47;;;;;;;11.64;100.00;101962.72;1970201;28;20038;-65
2022/10/06 00:21:05;;;;;;;11.30;2.70;;;;;;;11.68;100.00;101965.22;1970313;28;20080;-65
2022/10/06 00:22:03;;;;;;;10.48;2.58;;;;;;;11.65;100.00;101969.66;1970146;28;20076;-65
2022/10/06 00:23:00;;;;;;;11.48;2.47;;;;;;;11.64;100.00;101963.59;1970273;28;20485;-63
2022/10/06 00:23:58;;;;;;;10.43;2.80;;;;;;;11.65;100.00;101964.44;1970170;28;20080;-65
2022/10/06 00:24:55;;;;;;;9.00;2.38;;;;;;;11.66;100.00;101966.16;1970261;28;20030;-65
2022/10/06 00:25:53;;;;;;;10.20;2.47;;;;;;;11.66;100.00;101961.78;1969998;28;20289;-65
2022/10/06 00:26:50;;;;;;;8.30;2.50;;;;;;;11.69;100.00;101966.06;1970279;28;20047;-64
2022/10/06 00:27:51;;;;;;;10.35;3.15;;;;;;;11.69;100.00;101966.06;1969996;28;20071;-65
2022/10/06 00:28:49;;;;;;;;;;;;;;;11.64;100.00;101971.44;1970585;28;20053;-65
2022/10/06 00:29:46;;;;;;;7.75;2.53;;;;;;;11.65;100.00;101974.91;1970221;28;19909;-66
2022/10/06 00:30:44;;;;;;;11.40;2.67;;;;;;;11.62;100.00;101974.97;1970100;28;20038;-66
2022/10/06 00:31:42;;;;;;;10.13;2.40;;;;;;;11.58;100.00;101975.09;1970165;28;20044;-65
2022/10/06 00:32:40;;;;;;;11.70;2.60;;;;;;;11.55;100.00;101980.41;1970095;28;20477;-65
2022/10/06 00:33:37;;;;;;;9.88;2.58;;;;;;;11.51;100.00;101983.13;1970098;28;20062;-63
2022/10/06 00:34:38;;;;;;;8.98;2.50;;;;;;;11.54;100.00;101983.94;1970071;28;20042;-64
2022/10/06 00:35:35;;;;;;;;;;;;;;;11.48;100.00;101978.84;1970559;28;20511;-64
2022/10/06 00:36:32;;;;;;;11.18;2.65;;;;;;;11.48;100.00;101989.31;1970106;28;19913;-66
2022/10/06 00:37:35;;;;;;;11.40;2.42;;;;;;;11.46;100.00;101988.47;1970177;28;20040;-64
2022/10/06 00:38:33;;;;;;;9.13;2.40;;;;;;;11.44;100.00;101983.31;1970089;28;20034;-65
2022/10/06 00:39:31;;;;;;;8.55;2.28;;;;;;;11.45;100.00;101986.78;1970164;28;20429;-64
2022/10/06 00:40:30;;;;;;;9.35;2.42;;;;;;;11.42;100.00;101984.25;1970166;28;20045;-66
2022/10/06 00:41:28;;;;;;;9.57;2.30;;;;;;;11.45;100.00;101989.38;1970055;28;20037;-64
2022/10/06 00:42:30;;;;;;;9.15;2.60;;;;;;;11.38;100.00;101983.47;1970185;28;20046;-79
2022/10/06 00:43:55;;;;;;;7.90;2.35;;;;;;;11.35;100.00;101993.19;1970006;28;20074;-79
2022/10/06 00:44:56;;;;;;;6.47;2.28;;;;;;;11.32;100.00;101989.72;1970311;28;20030;-83
2022/10/06 00:45:54;;;;;;;10.15;2.80;;;;;;;11.33;100.00;101988.00;1970493;28;20504;-77
2022/10/06 00:46:57;;;;;;;8.10;2.58;;;;;;;11.33;100.00;101994.06;1970204;28;20041;-86
2022/10/06 00:48:04;;;;;;;9.43;2.50;;;;;;;11.33;100.00;101999.28;1967814;28;20038;-66
2022/10/06 00:49:29;;;;;;;13.70;2.33;;;;;;;11.32;100.00;101994.97;1970212;28;20038;-65
2022/10/06 00:50:29;;;;;;;9.90;2.78;;;;;;;11.36;100.00;102000.09;1970020;28;20482;-67
2022/10/06 00:51:30;;;;;;;10.57;2.50;;;;;;;11.41;100.00;101995.59;1970040;28;20037;-66
2022/10/06 00:52:30;;;;;;;13.55;2.63;;;;;;;11.46;100.00;101997.19;1970036;28;20037;-66
2022/10/06 00:53:30;;;;;;;7.97;2.53;;;;;;;11.45;100.00;102005.06;1970023;28;20042;-65
2022/10/06 00:54:30;;;;;;;10.05;2.10;;;;;;;11.37;100.00;102005.31;1970049;28;20037;-67
2022/10/06 00:55:27;;;;;;;10.20;2.53;;;;;;;11.35;100.00;102003.63;1970145;28;20029;-66
2022/10/06 00:56:25;;;;;;;8.65;2.33;;;;;;;11.38;100.00;102000.91;1970036;28;20038;-64
2022/10/06 00:57:25;;;;;;;8.23;2.33;;;;;;;11.37;100.00;102007.03;1969913;28;20041;-65
2022/10/06 00:58:23;;;;;;;10.93;2.60;;;;;;;11.37;100.00;102007.03;1970042;28;20025;-66
2022/10/06 00:59:21;;;;;;;8.93;2.40;;;;;;;11.36;100.00;102007.94;1969999;28;20033;-65
2022/10/06 01:00:19;;;;;;;8.57;2.30;;;;;;;11.34;100.00;102005.38;1969997;28;20131;-65
2022/10/06 01:01:17;;;;;;;14.52;2.78;;;;;;;11.32;100.00;102008.03;1961598;28;20442;-66
2022/10/06 01:02:34;;;;;;;10.25;3.00;;;;;;;11.33;100.00;102006.28;1953782;28;20043;-67
2022/10/06 01:03:36;;;;;;;9.88;2.20;;;;;;;11.39;100.00;102010.50;1963452;28;20552;-65
2022/10/06 01:04:43;;;;;;;13.48;2.58;;;;;;;11.35;100.00;102008.84;1969963;28;20045;-65
2022/10/06 01:05:49;;;;;;;11.15;2.70;;;;;;;11.36;100.00;102015.78;1969835;28;20164;-66
2022/10/06 01:06:58;;;;;;;6.85;2.25;;;;;;;11.35;100.00;102020.16;1969885;28;20037;-65
2022/10/06 01:07:56;;;;;;;11.65;2.45;;;;;;;11.37;100.00;102013.13;1969828;28;20056;-64
2022/10/06 01:08:54;;;;;;;10.80;2.40;;;;;;;11.35;100.00;102017.53;1969990;28;20054;-67
2022/10/06 01:09:53;;;;;;;15.30;2.33;;;;;;;11.42;100.00;102020.84;1969880;28;20030;-64
2022/10/06 01:10:51;;;;;;;12.20;3.03;;;;;;;11.37;100.00;102022.72;1969878;28;20120;-65
2022/10/06 01:11:52;;;;;;;9.32;2.55;;;;;;;11.39;100.00;102019.16;1969860;28;20041;-64
2022/10/06 01:12:50;;;;;;;9.70;2.22;;;;;;;11.40;100.00;102022.66;1961482;28;20030;-65
2022/10/06 01:13:48;;;;;;;11.05;2.20;;;;;;;11.42;100.00;102026.06;1961600;28;20034;-65
2022/10/06 01:14:47;;;;;;;10.45;2.35;;;;;;;11.37;100.00;102026.22;1969049;28;20057;-66
2022/10/06 01:15:58;;;;;;;12.10;2.40;;;;;;;11.48;100.00;102030.28;1969886;28;20063;-64
2022/10/06 01:17:08;;;;;;;11.48;2.60;;;;;;;11.43;100.00;102033.88;1961353;28;20037;-65
2022/10/06 01:18:13;;;;;;;11.30;2.70;;;;;;;11.44;100.00;102035.59;1960126;28;20371;-63
2022/10/06 01:19:33;;;;;;;8.63;2.28;;;;;;;11.42;100.00;102034.78;1969784;28;20048;-65
2022/10/06 01:20:33;;;;;;;9.90;2.42;;;;;;;11.49;100.00;102040.69;1969868;28;20045;-66
2022/10/06 01:21:43;;;;;;;12.40;2.58;;;;;;;11.45;100.00;102041.66;1969845;28;20040;-65
2022/10/06 01:22:54;;;;;;;10.57;2.20;;;;;;;11.42;100.00;102041.75;1969724;28;20030;-64
2022/10/06 01:23:52;;;;;;;;;;;;;;;11.35;100.00;102048.91;1970322;28;20041;-64
2022/10/06 01:24:51;;;;;;;7.65;2.30;;;;;;;11.36;100.00;102041.94;1969802;28;19927;-65
2022/10/06 01:25:49;;;;;;;10.47;2.30;;;;;;;11.39;100.00;102047.09;1969724;28;20036;-65
2022/10/06 01:26:51;;;;;;;8.70;2.10;;;;;;;11.40;100.00;102048.78;1969652;28;20417;-65
2022/10/06 01:27:55;;;;;;;8.45;2.30;;;;;;;11.38;100.00;102050.56;1969660;28;20049;-66
2022/10/06 01:28:52;;;;;;;13.77;2.50;;;;;;;11.35;100.00;102055.91;1969707;28;20033;-66
2022/10/06 01:29:53;;;;;;;6.78;2.38;;;;;;;11.38;100.00;102055.78;1969773;28;20233;-62
2022/10/06 01:30:54;;;;;;;9.25;2.70;;;;;;;11.37;100.00;102054.09;1969705;28;20557;-66
2022/10/06 01:31:51;;;;;;;6.50;2.35;;;;;;;11.44;100.00;102056.50;1969802;28;20101;-65
2022/10/06 01:32:49;;;;;;;6.32;2.10;;;;;;;11.49;100.00;102058.97;1969692;28;20022;-65
2022/10/06 01:33:54;;;;;;;11.85;2.45;;;;;;;11.44;100.00;102055.66;1969741;28;20045;-64
2022/10/06 01:34:52;;;;;;;11.10;2.05;;;;;;;11.43;100.00;102064.41;1961311;28;20110;-65
2022/10/06 01:35:52;;;;;;;11.48;2.42;;;;;;;11.33;100.00;102064.63;1961516;28;20068;-67
2022/10/06 01:36:49;;;;;;;10.68;2.40;;;;;;;11.36;100.00;102068.06;1969264;28;20034;-66
2022/10/06 01:37:47;;;;;;;10.05;2.67;;;;;;;11.36;100.00;102073.28;1969621;28;20030;-64
2022/10/06 01:38:44;;;;;;;11.27;2.20;;;;;;;11.37;100.00;102065.41;1969734;28;20550;-67
2022/10/06 01:39:43;;;;;;;12.90;2.92;;;;;;;11.36;100.00;102068.06;1969669;28;20128;-65
2022/10/06 01:40:40;;;;;;;6.45;2.35;;;;;;;11.33;100.00;102067.22;1961402;28;20142;-64
2022/10/06 01:41:38;;;;;;;11.80;2.50;;;;;;;11.28;100.00;102074.34;1961316;28;20054;-66
2022/10/06 01:42:36;;;;;;;16.20;2.80;;;;;;;11.31;100.00;102065.56;1968687;28;20366;-66
2022/10/06 01:43:34;;;;;;;13.65;2.42;;;;;;;11.30;100.00;102064.69;1969496;28;20141;-66
2022/10/06 01:44:31;;;;;;;12.95;2.50;;;;;;;11.29;100.00;102070.81;1969659;28;20339;-65
2022/10/06 01:45:29;;;;;;;10.10;2.47;;;;;;;11.23;100.00;102073.63;1969639;28;20042;-66
2022/10/06 01:46:28;;;;;;;10.43;2.75;;;;;;;11.20;100.00;102068.47;1969712;28;20563;-65
2022/10/06 01:47:26;;;;;;;9.32;2.50;;;;;;;11.15;100.00;102076.41;1970108;28;20043;-73
2022/10/06 01:48:24;;;;;;;10.38;2.80;;;;;;;11.13;100.00;102083.44;1967531;28;20072;-73
2022/10/06 01:49:22;;;;;;;10.65;2.38;;;;;;;11.15;100.00;102084.25;1969730;28;20080;-78
2022/10/06 01:50:19;;;;;;;8.63;2.42;;;;;;;11.08;100.00;102080.06;1969675;28;20493;-64
2022/10/06 01:51:17;;;;;;;13.52;2.47;;;;;;;11.06;100.00;102080.09;1969573;28;20038;-64
2022/10/06 01:52:14;;;;;;;16.58;2.65;;;;;;;11.07;100.00;102079.22;1969624;28;20038;-65
2022/10/06 01:53:12;;;;;;;8.20;2.45;;;;;;;11.02;100.00;102086.28;1961403;28;20086;-65
2022/10/06 01:54:09;;;;;;;9.60;2.38;;;;;;;11.03;100.00;102088.03;1961456;28;20044;-81
2022/10/06 01:55:07;;;;;;;12.18;2.72;;;;;;;11.05;100.00;102095.84;1969008;28;20042;-73
2022/10/06 01:56:04;;;;;;;12.27;2.72;;;;;;;11.06;100.00;102098.38;1969894;28;20116;-79
2022/10/06 01:57:05;;;;;;;9.02;2.30;;;;;;;11.03;100.00;102087.16;1970015;28;20091;-71
2022/10/06 01:58:02;;;;;;;;;;;;;;;10.98;100.00;102095.09;1970578;28;20052;-75
2022/10/06 01:58:59;;;;;;;15.07;2.42;;;;;;;10.98;100.00;102092.50;1969942;28;19934;-79
2022/10/06 01:59:57;;;;;;;13.75;2.70;;;;;;;10.98;100.00;102100.31;1970157;28;20038;-79
2022/10/06 02:00:54;;;;;;;11.52;2.53;;;;;;;10.95;100.00;102097.81;1969912;28;20127;-66
2022/10/06 02:01:52;;;;;;;10.20;2.85;;;;;;;10.90;100.00;102094.44;1969595;28;20098;-66
2022/10/06 02:02:50;;;;;;;18.27;2.83;;;;;;;10.90;100.00;102091.81;1969499;28;20036;-65
2022/10/06 02:03:47;;;;;;;10.55;2.65;;;;;;;10.93;100.00;102097.84;1969630;28;20061;-70
2022/10/06 02:04:45;;;;;;;14.30;3.08;;;;;;;10.96;100.00;102102.13;1969699;28;20062;-66
2022/10/06 02:05:42;;;;;;;9.50;2.42;;;;;;;10.96;100.00;102099.53;1969676;28;20038;-64
2022/10/06 02:06:39;;;;;;;12.07;2.28;;;;;;;10.98;100.00;102100.31;1969511;28;20621;-66
2022/10/06 02:07:37;;;;;;;11.05;2.50;;;;;;;11.00;100.00;102095.06;1969540;28;20037;-65
2022/10/06 02:08:35;;;;;;;16.90;3.03;;;;;;;11.05;100.00;102098.44;1969510;28;20065;-65
2022/10/06 02:09:32;;;;;;;11.27;2.55;;;;;;;10.97;100.00;102093.38;1969659;28;20096;-67
2022/10/06 02:10:30;;;;;;;10.70;2.65;;;;;;;10.92;100.00;102090.88;1969480;28;20421;-66
2022/10/06 02:11:28;;;;;;;14.90;2.80;;;;;;;10.89;100.00;102095.31;1969678;28;20092;-66
2022/10/06 02:12:25;;;;;;;14.82;3.28;;;;;;;10.92;100.00;102095.25;1969412;28;20045;-65
2022/10/06 02:13:25;;;;;;;10.23;2.55;;;;;;;10.87;100.00;102099.72;1961188;28;20066;-67
2022/10/06 02:14:22;;;;;;;13.70;2.65;;;;;;;10.84;100.00;102108.47;1961359;28;20057;-66
2022/10/06 02:15:20;;;;;;;8.93;2.50;;;;;;;10.80;100.00;102102.50;1969805;28;20040;-67
2022/10/06 02:16:18;;;;;;;15.15;2.90;;;;;;;10.86;100.00;102116.28;1971172;28;20038;-68
2022/10/06 02:17:15;;;;;;;13.48;2.45;;;;;;;10.85;100.00;102115.44;1971182;28;20034;-65
2022/10/06 02:18:13;;;;;;;9.90;2.30;;;;;;;10.88;100.00;102112.75;1968856;28;20064;-66
2022/10/06 02:19:11;;;;;;;11.40;2.60;;;;;;;10.85;100.00;102111.97;1962730;28;20038;-68
2022/10/06 02:20:08;;;;;;;9.68;2.60;;;;;;;10.85;100.00;102115.44;1962970;28;20041;-74
2022/10/06 02:21:22;;;;;;;15.02;2.95;;;;;;;10.85;100.00;102114.56;1970352;28;20042;-77
2022/10/06 02:22:19;;;;;;;12.32;2.50;;;;;;;10.82;100.00;102116.34;1971281;28;20041;-73
2022/10/06 02:23:16;;;;;;;13.30;2.58;;;;;;;10.81;100.00;102117.25;1971097;28;20116;-73
2022/10/06 02:24:14;;;;;;;9.35;2.60;;;;;;;10.78;100.00;102114.69;1971206;28;20044;-77
2022/10/06 02:25:11;;;;;;;14.30;3.03;;;;;;;10.78;100.00;102113.88;1971024;28;20069;-73
2022/10/06 02:26:10;;;;;;;10.35;2.22;;;;;;;10.76;100.00;102126.97;1971135;28;20120;-78
2022/10/06 02:27:07;;;;;;;11.10;2.30;;;;;;;10.76;100.00;102116.50;1962576;28;20127;-71
2022/10/06 02:28:05;;;;;;;12.75;2.50;;;;;;;10.77;100.00;102128.66;1962812;28;20046;-74
2022/10/06 02:29:02;;;;;;;13.65;2.65;;;;;;;10.76;100.00;102124.34;1970290;28;20046;-70
2022/10/06 02:30:00;;;;;;;12.30;2.50;;;;;;;10.71;100.00;102128.78;1971275;28;20091;-74
2022/10/06 02:31:07;;;;;;;11.77;2.38;;;;;;;10.76;100.00;102137.41;1971190;28;20034;-74
2022/10/06 02:32:05;;;;;;;13.80;2.88;;;;;;;10.72;100.00;102135.75;1971159;28;20037;-78
2022/10/06 02:33:02;;;;;;;13.38;2.53;;;;;;;10.70;100.00;102134.91;1971049;28;20034;-79
2022/10/06 02:34:01;;;;;;;13.23;2.80;;;;;;;10.73;100.00;102134.84;1970989;28;20038;-73
2022/10/06 02:34:59;;;;;;;9.15;2.35;;;;;;;10.71;100.00;102134.00;1971064;28;20145;-69
2022/10/06 02:35:57;;;;;;;12.30;2.60;;;;;;;10.75;100.00;102140.03;1971069;28;20036;-82
2022/10/06 02:36:54;;;;;;;10.23;2.40;;;;;;;10.75;100.00;102148.75;1971290;28;20037;-80
2022/10/06 02:37:51;;;;;;;7.28;2.25;;;;;;;10.72;100.00;102138.38;1971053;28;20028;-76
2022/10/06 02:38:49;;;;;;;12.68;2.72;;;;;;;10.71;100.00;102138.41;1962764;28;20494;-72
2022/10/06 02:39:47;;;;;;;14.23;2.60;;;;;;;10.67;100.00;102143.69;1962605;28;20107;-76
2022/10/06 02:40:44;;;;;;;15.50;2.78;;;;;;;10.63;100.00;102143.78;1970390;28;20049;-77
2022/10/06 02:41:41;;;;;;;11.73;2.47;;;;;;;10.68;100.00;102142.78;1971245;28;20038;-74
2022/10/06 02:42:39;;;;;;;12.20;2.80;;;;;;;10.73;100.00;102142.69;1970966;28;20454;-72
2022/10/06 02:43:37;;;;;;;12.43;2.60;;;;;;;10.71;100.00;102151.44;1970802;28;20083;-78
2022/10/06 02:44:34;;;;;;;12.90;3.00;;;;;;;10.71;100.00;102143.63;1962789;28;20061;-74
2022/10/06 02:45:32;;;;;;;11.50;2.83;;;;;;;10.65;100.00;102144.59;1962870;28;20124;-76
2022/10/06 02:46:30;;;;;;;15.40;3.28;;;;;;;10.62;100.00;102147.28;1970164;28;20041;-78
2022/10/06 02:47:28;;;;;;;14.20;2.70;;;;;;;10.59;100.00;102149.94;1971102;28;20558;-73
2022/10/06 02:48:27;;;;;;;10.52;2.85;;;;;;;10.59;100.00;102155.16;1968618;28;20049;-78
2022/10/06 02:49:25;;;;;;;10.90;2.45;;;;;;;10.59;100.00;102156.03;1962712;28;20030;-78
2022/10/06 02:50:22;;;;;;;8.73;2.45;;;;;;;10.63;100.00;102162.03;1962749;28;20038;-78
2022/10/06 02:51:21;;;;;;;13.35;3.08;;;;;;;10.59;100.00;102161.25;1970142;28;20063;-76
2022/10/06 02:52:18;;;;;;;11.98;2.60;;;;;;;10.57;100.00;102160.41;1970896;28;20040;-77
2022/10/06 02:53:15;;;;;;;8.77;2.53;;;;;;;10.59;100.00;102166.47;1970983;28;20393;-79
2022/10/06 02:54:14;;;;;;;12.02;2.25;;;;;;;10.60;100.00;102162.13;1970825;28;20567;-75
2022/10/06 02:55:12;;;;;;;13.43;2.83;;;;;;;10.57;100.00;102163.03;1970951;28;20379;-77
2022/10/06 02:56:18;;;;;;;15.82;2.28;;;;;;;10.51;100.00;102158.78;1962395;28;20411;-70
2022/10/06 02:57:15;;;;;;;12.77;2.60;;;;;;;10.53;100.00;102162.25;1962709;28;20077;-71
2022/10/06 02:58:12;;;;;;;9.32;2.50;;;;;;;10.57;100.00;102165.63;1970381;28;20040;-76
2022/10/06 02:59:10;;;;;;;10.70;2.60;;;;;;;10.50;100.00;102167.53;1970875;28;20046;-76
2022/10/06 03:00:09;;;;;;;14.85;2.58;;;;;;;10.48;100.00;102164.09;1970967;28;20328;-76
2022/10/06 03:01:15;;;;;;;11.15;2.78;;;;;;;10.44;100.00;102170.25;1970869;28;20078;-77
2022/10/06 03:02:13;;;;;;;14.52;2.90;;;;;;;10.40;100.00;102176.44;1962651;28;20033;-66
2022/10/06 03:03:10;;;;;;;11.88;2.63;;;;;;;10.39;100.00;102174.69;1962562;28;20058;-66
2022/10/06 03:04:07;;;;;;;11.65;2.60;;;;;;;10.36;100.00;102170.38;1969804;28;20030;-67
2022/10/06 03:05:05;;;;;;;12.07;2.80;;;;;;;10.33;100.00;102180.88;1970776;28;20069;-65
2022/10/06 03:06:30;;;;;;;12.90;2.40;;;;;;;10.32;100.00;102176.56;1970851;28;20034;-65
2022/10/06 03:07:28;;;;;;;10.93;2.70;;;;;;;10.26;100.00;102174.94;1962645;28;20037;-66
2022/10/06 03:08:25;;;;;;;12.48;2.75;;;;;;;10.26;100.00;102180.16;1970720;28;20048;-65
2022/10/06 03:09:23;;;;;;;11.38;2.53;;;;;;;10.23;100.00;102188.03;1970734;28;20061;-65
2022/10/06 03:10:21;;;;;;;12.88;3.00;;;;;;;10.24;100.00;102192.38;1962413;28;20047;-66
2022/10/06 03:11:21;;;;;;;10.68;2.42;;;;;;;10.20;100.00;102188.13;1962378;28;20140;-65
2022/10/06 03:12:18;;;;;;;11.93;2.78;;;;;;;10.18;100.00;102192.50;1970224;28;20046;-66
2022/10/06 03:13:15;;;;;;;9.95;2.30;;;;;;;10.19;100.00;102199.41;1970650;28;20068;-65
2022/10/06 03:14:13;;;;;;;18.92;2.83;;;;;;;10.15;100.00;102197.75;1970774;28;20528;-66
2022/10/06 03:15:10;;;;;;;12.23;2.70;;;;;;;10.13;100.00;102200.41;1970662;28;20069;-66
2022/10/06 03:16:18;;;;;;;13.48;2.85;;;;;;;10.12;100.00;102197.81;1970597;28;20030;-67
2022/10/06 03:17:16;;;;;;;9.23;2.40;;;;;;;10.15;100.00;102195.16;1970663;28;20493;-67
2022/10/06 03:18:13;;;;;;;14.13;2.90;;;;;;;10.14;100.00;102202.13;1968628;28;20421;-64
2022/10/06 03:19:10;;;;;;;12.82;2.90;;;;;;;10.11;100.00;102198.72;1970623;28;20049;-65
2022/10/06 03:20:08;;;;;;;11.05;2.90;;;;;;;10.11;100.00;102196.09;1970710;28;20041;-66
2022/10/06 03:21:06;;;;;;;13.20;2.60;;;;;;;10.16;100.00;102199.47;1970754;28;20040;-65
2022/10/06 03:22:04;;;;;;;13.75;3.08;;;;;;;10.11;100.00;102206.53;1962427;28;20042;-66
2022/10/06 03:23:02;;;;;;;14.60;2.83;;;;;;;10.07;100.00;102207.47;1962567;28;20030;-65
2022/10/06 03:24:00;;;;;;;12.50;2.70;;;;;;;10.05;100.00;102208.38;1969892;28;20051;-66
2022/10/06 03:24:58;;;;;;;13.52;2.70;;;;;;;10.03;100.00;102207.53;1970630;28;20072;-67
2022/10/06 03:25:56;;;;;;;11.40;2.88;;;;;;;10.08;100.00;102197.03;1969978;28;20041;-66
2022/10/06 03:26:54;;;;;;;12.00;3.10;;;;;;;10.04;100.00;102206.66;1970789;28;20049;-67
2022/10/06 03:27:51;;;;;;;17.48;2.95;;;;;;;10.04;100.00;102209.28;1970511;28;20036;-65
2022/10/06 03:28:49;;;;;;;12.65;3.15;;;;;;;10.03;100.00;102215.34;1970709;28;20036;-64
2022/10/06 03:29:46;;;;;;;10.40;2.38;;;;;;;10.01;100.00;102217.16;1970561;28;20041;-66
2022/10/06 03:30:44;;;;;;;12.95;2.75;;;;;;;10.01;100.00;102211.06;1970738;28;20104;-64
2022/10/06 03:31:42;;;;;;;8.95;2.42;;;;;;;9.98;100.00;102216.31;1970541;28;20034;-64
2022/10/06 03:32:39;;;;;;;11.45;3.00;;;;;;;10.00;100.00;102214.56;1970719;28;20070;-66
2022/10/06 03:33:37;;;;;;;13.57;2.88;;;;;;;9.97;100.00;102206.78;1962253;28;20044;-65
2022/10/06 03:34:34;;;;;;;15.30;3.03;;;;;;;9.96;100.00;102218.94;1962266;28;20057;-67
2022/10/06 03:35:32;;;;;;;11.50;2.80;;;;;;;10.01;100.00;102217.16;1969822;28;20053;-65
2022/10/06 03:36:32;;;;;;;11.57;2.97;;;;;;;10.03;100.00;102220.56;1962216;28;20154;-65
2022/10/06 03:37:29;;;;;;;14.63;3.28;;;;;;;10.01;100.00;102219.75;1962455;28;20042;-67
2022/10/06 03:38:28;;;;;;;12.98;2.65;;;;;;;9.98;100.00;102222.41;1970052;28;20511;-67
2022/10/06 03:39:25;;;;;;;17.77;2.83;;;;;;;9.99;100.00;102228.50;1970476;28;20044;-68
2022/10/06 03:40:23;;;;;;;15.70;2.80;;;;;;;9.97;100.00;102225.91;1970500;28;20041;-68
2022/10/06 03:41:29;;;;;;;16.75;2.90;;;;;;;9.99;100.00;102229.34;1970623;28;20052;-66
2022/10/06 03:42:27;;;;;;;15.80;3.08;;;;;;;9.98;100.00;102230.22;1970418;28;20493;-65
2022/10/06 03:43:24;;;;;;;9.23;2.40;;;;;;;9.93;100.00;102229.47;1970430;28;20496;-66
2022/10/06 03:44:22;;;;;;;17.50;2.97;;;;;;;9.95;100.00;102238.09;1970531;28;20112;-65
2022/10/06 03:45:19;;;;;;;18.80;3.08;;;;;;;9.91;100.00;102232.09;1962199;28;20038;-65
2022/10/06 03:46:20;;;;;;;16.88;3.45;;;;;;;9.92;100.00;102228.59;1962191;28;20026;-65
2022/10/06 03:47:18;;;;;;;13.48;2.90;;;;;;;9.92;100.00;102232.94;1962190;28;20413;-66
2022/10/06 03:48:15;;;;;;;11.95;2.78;;;;;;;9.90;100.00;102235.59;1959762;28;20050;-66
2022/10/06 03:49:12;;;;;;;10.35;2.45;;;;;;;9.89;100.00;102243.44;1969608;28;20084;-65
2022/10/06 03:50:10;;;;;;;12.68;2.60;;;;;;;9.88;100.00;102242.56;1970567;28;20102;-66
2022/10/06 03:51:14;;;;;;;10.50;2.65;;;;;;;9.88;100.00;102242.56;1970416;28;20053;-66
2022/10/06 03:52:12;;;;;;;15.40;3.10;;;;;;;9.86;100.00;102253.91;1970334;28;20516;-65
2022/10/06 03:53:09;;;;;;;15.65;3.10;;;;;;;9.82;100.00;102247.03;1970408;28;20044;-64
2022/10/06 03:54:09;;;;;;;14.85;3.30;;;;;;;9.76;100.00;102250.59;1970427;28;20113;-65
2022/10/06 03:55:07;;;;;;;16.17;3.13;;;;;;;9.81;100.00;102254.00;1970393;28;20071;-66
2022/10/06 03:56:11;;;;;;;16.20;2.92;;;;;;;9.79;100.00;102258.38;1970499;28;20084;-65
2022/10/06 03:57:08;;;;;;;12.93;2.80;;;;;;;9.77;100.00;102255.78;1970337;28;20042;-66
2022/10/06 03:58:06;;;;;;;18.00;2.80;;;;;;;9.77;100.00;102260.13;1970452;28;20474;-66
2022/10/06 03:59:10;;;;;;;16.00;3.80;;;;;;;9.75;100.00;102261.94;1970493;28;20044;-67
2022/10/06 04:00:08;;;;;;;14.60;3.25;;;;;;;9.76;100.00;102261.03;1970430;28;20048;-67
2022/10/06 04:01:35;;;;;;;13.68;2.95;;;;;;;9.72;100.00;102267.19;1970377;28;20057;-66
2022/10/06 04:02:32;;;;;;;8.10;2.55;;;;;;;9.69;100.00;102268.09;1966573;28;20038;-66
2022/10/06 04:03:31;;;;;;;12.43;2.72;;;;;;;9.67;100.00;102275.06;1970354;28;20113;-66
2022/10/06 04:04:28;;;;;;;10.45;3.63;;;;;;;9.69;100.00;102267.22;1961965;28;20048;-65
2022/10/06 04:05:26;;;;;;;11.77;2.85;;;;;;;9.65;100.00;102271.63;1962115;28;20034;-65
2022/10/06 04:06:26;;;;;;;11.05;3.05;;;;;;;9.66;100.00;102279.41;1968958;28;20041;-65
2022/10/06 04:07:23;;;;;;;19.38;3.10;;;;;;;9.61;100.00;102281.22;1969782;28;20037;-67
2022/10/06 04:08:23;;;;;;;21.92;3.53;;;;;;;9.60;100.00;102274.31;1970240;28;20508;-66
2022/10/06 04:09:20;;;;;;;15.80;3.00;;;;;;;9.58;100.00;102277.81;1970301;28;20401;-66
2022/10/06 04:10:18;;;;;;;17.67;3.13;;;;;;;9.61;100.00;102286.44;1970428;28;20026;-66
2022/10/06 04:11:21;;;;;;;13.50;3.00;;;;;;;9.63;100.00;102278.59;1970283;28;20052;-66
2022/10/06 04:12:18;;;;;;;12.52;3.00;;;;;;;9.63;100.00;102289.91;1970397;28;20081;-73
2022/10/06 04:13:17;;;;;;;13.10;3.10;;;;;;;9.61;100.00;102286.44;1970310;28;20037;-75
2022/10/06 04:14:15;;;;;;;19.67;2.95;;;;;;;9.59;100.00;102290.84;1970414;28;20386;-75
2022/10/06 04:15:13;;;;;;;16.63;2.97;;;;;;;9.55;100.00;102290.91;1970376;28;20129;-73
2022/10/06 04:16:12;;;;;;;13.18;2.95;;;;;;;9.55;100.00;102290.91;1970273;28;20100;-73
2022/10/06 04:17:10;;;;;;;12.88;2.83;;;;;;;9.55;100.00;102296.09;1970235;28;20409;-77
2022/10/06 04:18:07;;;;;;;18.50;3.22;;;;;;;9.53;100.00;102289.19;1967982;28;20038;-75
2022/10/06 04:19:08;;;;;;;13.40;3.63;;;;;;;9.49;100.00;102297.94;1970325;28;20038;-72
2022/10/06 04:20:06;;;;;;;16.67;3.13;;;;;;;9.46;100.00;102302.31;1970234;28;20040;-74
2022/10/06 04:21:04;;;;;;;13.88;3.38;;;;;;;9.45;100.00;102296.25;1970549;28;20386;-73
2022/10/06 04:22:02;;;;;;;15.75;3.35;;;;;;;9.40;100.00;102300.66;1961885;28;20039;-73
2022/10/06 04:23:00;;;;;;;14.32;3.08;;;;;;;9.43;100.00;102303.22;1962038;28;20060;-79
2022/10/06 04:23:59;;;;;;;13.32;3.42;;;;;;;9.39;100.00;102301.53;1969447;28;20033;-72
2022/10/06 04:24:56;;;;;;;16.45;3.40;;;;;;;9.37;100.00;102308.50;1970375;28;20037;-74
2022/10/06 04:26:02;;;;;;;12.43;2.97;;;;;;;9.37;100.00;102298.09;1970144;28;20038;-71
2022/10/06 04:27:26;;;;;;;17.85;3.65;;;;;;;9.37;100.00;102298.94;1970222;28;20041;-75
2022/10/06 04:28:16;;;;;;;12.80;2.90;;;;;;;9.37;100.00;102298.09;1969763;28;20038;-73
2022/10/06 04:29:14;;;;;;;16.08;3.03;;;;;;;9.42;100.00;102305.84;1970218;28;20072;-69
2022/10/06 04:30:12;;;;;;;12.43;2.95;;;;;;;9.42;100.00;102311.94;1970139;28;20049;-73
2022/10/06 04:31:19;;;;;;;18.13;3.13;;;;;;;9.39;100.00;102310.22;1970319;28;20081;-73
2022/10/06 04:32:16;;;;;;;16.08;3.17;;;;;;;9.37;100.00;102308.50;1970210;28;20040;-75